createdAt,value
2017-08-27T00:01:37.520Z,57.27
2017-08-27T00:04:05.814Z,59.17
2017-08-27T00:06:34.118Z,60.20
2017-08-27T00:09:02.448Z,59.80
2017-08-27T00:11:30.748Z,54.53
2017-08-27T00:13:59.818Z,52.43
2017-08-27T00:16:28.114Z,51.70
2017-08-27T00:18:56.511Z,50.50
2017-08-27T00:21:24.838Z,50.43
2017-08-27T00:23:53.182Z,52.23
2017-08-27T00:26:21.495Z,48.40
2017-08-27T00:28:50.564Z,50.97
2017-08-27T00:31:18.974Z,47.97
2017-08-27T00:33:47.272Z,48.60
2017-08-27T00:36:15.570Z,45.87
2017-08-27T00:38:43.891Z,46.20
2017-08-27T00:41:12.186Z,47.63
2017-08-27T00:43:40.509Z,44.27
2017-08-27T00:46:08.830Z,43.70
2017-08-27T00:48:37.895Z,45.87
2017-08-27T00:51:06.306Z,44.37
2017-08-27T00:53:34.621Z,50.17
2017-08-27T00:56:03.087Z,51.10
2017-08-27T00:58:31.415Z,47.60
2017-08-27T01:00:59.718Z,53.30
2017-08-27T01:03:28.019Z,54.10
2017-08-27T01:05:56.314Z,47.10
2017-08-27T01:08:24.664Z,50.67
2017-08-27T01:10:52.971Z,49.20
2017-08-27T01:13:21.298Z,47.50
2017-08-27T01:15:49.699Z,50.57
2017-08-27T01:18:17.998Z,48.60
2017-08-27T01:20:46.301Z,49.90
2017-08-27T01:23:14.598Z,48.60
2017-08-27T01:25:42.931Z,52.03
2017-08-27T01:28:11.267Z,48.23
2017-08-27T01:30:40.359Z,46.23
2017-08-27T01:33:08.662Z,50.57
2017-08-27T01:35:36.991Z,46.03
2017-08-27T01:38:05.331Z,47.93
2017-08-27T01:40:33.714Z,54.23
2017-08-27T01:43:02.131Z,56.60
2017-08-27T01:45:31.523Z,57.80
2017-08-27T01:47:59.822Z,58.50
2017-08-27T01:50:28.118Z,53.50
2017-08-27T01:52:57.180Z,50.90
2017-08-27T01:55:25.485Z,52.27
2017-08-27T01:57:53.807Z,48.70
2017-08-27T02:00:22.128Z,49.30
2017-08-27T02:02:50.451Z,50.60
2017-08-27T02:05:18.843Z,63.43
2017-08-27T02:07:47.253Z,56.17
2017-08-27T02:10:15.552Z,51.77
2017-08-27T02:12:43.839Z,55.70
2017-08-27T02:15:12.175Z,47.70
2017-08-27T02:17:40.473Z,51.27
2017-08-27T02:20:08.899Z,52.40
2017-08-27T02:22:37.191Z,50.80
2017-08-27T02:25:05.530Z,49.47
2017-08-27T02:27:33.866Z,52.60
2017-08-27T02:30:02.172Z,52.00
2017-08-27T02:32:30.462Z,51.33
2017-08-27T02:34:58.790Z,52.17
2017-08-27T02:37:27.127Z,53.90
2017-08-27T02:39:55.418Z,52.33
2017-08-27T02:42:23.734Z,51.37
2017-08-27T02:44:52.057Z,49.40
2017-08-27T02:47:20.367Z,53.90
2017-08-27T02:49:48.767Z,49.30
2017-08-27T02:52:17.072Z,53.03
2017-08-27T02:54:46.268Z,52.77
2017-08-27T02:57:14.596Z,48.90
2017-08-27T02:59:42.894Z,50.63
2017-08-27T03:02:11.217Z,48.07
2017-08-27T03:04:39.622Z,50.10
2017-08-27T03:07:07.955Z,51.43
2017-08-27T03:09:36.283Z,51.40
2017-08-27T03:12:04.607Z,53.50
2017-08-27T03:14:33.666Z,52.53
2017-08-27T03:17:02.001Z,51.67
2017-08-27T03:19:30.295Z,48.80
2017-08-27T03:21:59.351Z,49.03
2017-08-27T03:24:27.687Z,48.53
2017-08-27T03:26:55.988Z,48.30
2017-08-27T03:29:25.083Z,47.03
2017-08-27T03:31:54.150Z,46.97
2017-08-27T03:34:22.477Z,46.37
2017-08-27T03:36:50.770Z,43.57
2017-08-27T03:39:19.094Z,41.20
2017-08-27T03:41:48.252Z,42.90
2017-08-27T03:44:16.566Z,46.40
2017-08-27T03:46:44.903Z,40.13
2017-08-27T03:49:13.182Z,40.60
2017-08-27T03:51:41.503Z,41.37
2017-08-27T03:54:09.827Z,40.07
2017-08-27T03:56:38.125Z,41.30
2017-08-27T03:59:07.214Z,40.43
2017-08-27T04:01:35.572Z,39.63
2017-08-27T04:04:03.871Z,39.07
2017-08-27T04:06:32.173Z,38.43
2017-08-27T04:09:00.462Z,43.40
2017-08-27T04:11:29.556Z,40.30
2017-08-27T04:13:57.882Z,40.97
2017-08-27T04:16:26.201Z,41.00
2017-08-27T04:18:54.500Z,40.70
2017-08-27T04:21:22.797Z,40.67
2017-08-27T04:23:51.195Z,41.83
2017-08-27T04:26:19.485Z,41.47
2017-08-27T04:28:47.862Z,41.77
2017-08-27T04:31:16.180Z,44.90
2017-08-27T04:33:44.504Z,41.83
2017-08-27T04:36:12.791Z,42.27
2017-08-27T04:38:41.086Z,44.00
2017-08-27T04:41:09.418Z,43.50
2017-08-27T04:43:38.108Z,43.67
2017-08-27T04:46:06.510Z,42.33
2017-08-27T04:48:34.813Z,45.33
2017-08-27T04:51:03.110Z,45.43
2017-08-27T04:53:31.398Z,43.90
2017-08-27T04:55:59.709Z,45.57
2017-08-27T04:58:28.113Z,42.73
2017-08-27T05:00:56.499Z,45.90
2017-08-27T05:03:24.883Z,43.13
2017-08-27T05:05:53.290Z,49.57
2017-08-27T05:08:21.616Z,48.80
2017-08-27T05:10:50.061Z,47.43
2017-08-27T05:13:18.386Z,51.40
2017-08-27T05:15:46.702Z,51.10
2017-08-27T05:18:15.022Z,63.20
2017-08-27T05:20:43.318Z,56.70
2017-08-27T05:23:11.707Z,62.37
2017-08-27T05:25:40.104Z,61.63
2017-08-27T05:28:08.496Z,63.70
2017-08-27T05:30:36.807Z,57.73
2017-08-27T05:33:05.103Z,65.07
2017-08-27T05:35:33.399Z,67.73
2017-08-27T05:38:01.725Z,69.97
2017-08-27T05:40:30.063Z,70.60
2017-08-27T05:42:59.158Z,73.60
2017-08-27T05:45:27.467Z,72.13
2017-08-27T05:47:56.527Z,79.10
2017-08-27T05:50:24.826Z,82.53
2017-08-27T05:52:53.178Z,73.90
2017-08-27T05:55:21.591Z,78.40
2017-08-27T05:57:49.892Z,78.40
2017-08-27T06:00:18.215Z,78.57
2017-08-27T06:02:46.515Z,76.57
2017-08-27T06:05:14.829Z,71.97
2017-08-27T06:07:43.164Z,68.00
2017-08-27T06:10:11.467Z,68.97
2017-08-27T06:12:39.795Z,64.57
2017-08-27T06:15:08.211Z,65.40
2017-08-27T06:17:37.343Z,62.80
2017-08-27T06:20:05.731Z,59.70
2017-08-27T06:22:34.110Z,56.80
2017-08-27T06:25:02.431Z,59.07
2017-08-27T06:27:31.515Z,56.40
2017-08-27T06:29:59.813Z,60.10
2017-08-27T06:32:29.022Z,56.87
2017-08-27T06:34:57.396Z,57.00
2017-08-27T06:37:26.600Z,55.10
2017-08-27T06:39:54.895Z,55.23
2017-08-27T06:42:23.200Z,55.97
2017-08-27T06:44:51.514Z,55.53
2017-08-27T06:47:19.879Z,56.03
2017-08-27T06:49:48.195Z,55.67
2017-08-27T06:52:16.502Z,54.73
2017-08-27T06:54:44.854Z,55.20
2017-08-27T06:57:13.282Z,54.03
2017-08-27T06:59:41.596Z,54.70
2017-08-27T07:02:09.883Z,52.07
2017-08-27T07:04:38.189Z,54.17
2017-08-27T07:07:06.481Z,52.37
2017-08-27T07:09:34.807Z,51.63
2017-08-27T07:12:03.098Z,48.17
2017-08-27T07:14:31.452Z,49.33
2017-08-27T07:16:59.739Z,47.07
2017-08-27T07:19:28.066Z,48.60
2017-08-27T07:21:56.375Z,44.63
2017-08-27T07:24:24.665Z,47.33
2017-08-27T07:26:52.962Z,47.00
2017-08-27T07:29:21.283Z,46.27
2017-08-27T07:31:49.585Z,47.97
2017-08-27T07:34:17.914Z,42.97
2017-08-27T07:36:46.203Z,43.00
2017-08-27T07:39:14.522Z,40.90
2017-08-27T07:41:42.828Z,39.53
2017-08-27T07:44:11.118Z,38.60
2017-08-27T07:46:39.435Z,38.63
2017-08-27T07:49:08.486Z,36.37
2017-08-27T07:51:36.780Z,34.60
2017-08-27T07:54:05.847Z,33.67
2017-08-27T07:56:34.180Z,35.47
2017-08-27T07:59:02.508Z,35.30
2017-08-27T08:01:30.807Z,35.43
2017-08-27T08:03:59.103Z,33.30
2017-08-27T08:06:27.395Z,37.17
2017-08-27T08:08:55.718Z,36.17
2017-08-27T08:11:24.026Z,37.13
2017-08-27T08:13:52.316Z,36.00
2017-08-27T08:16:21.213Z,36.60
2017-08-27T08:18:49.668Z,35.33
2017-08-27T08:21:18.208Z,35.20
2017-08-27T08:23:46.501Z,33.47
2017-08-27T08:26:14.799Z,31.20
2017-08-27T08:28:43.086Z,31.57
2017-08-27T08:31:11.478Z,30.70
2017-08-27T08:33:39.771Z,31.63
2017-08-27T08:36:08.099Z,30.43
2017-08-27T08:38:36.403Z,30.83
2017-08-27T08:41:04.699Z,30.50
2017-08-27T08:43:33.018Z,29.63
2017-08-27T08:46:01.331Z,29.23
2017-08-27T08:48:30.551Z,30.73
2017-08-27T08:50:59.628Z,29.17
2017-08-27T08:53:27.960Z,28.10
2017-08-27T08:55:56.265Z,27.50
2017-08-27T08:58:24.583Z,28.43
2017-08-27T09:00:52.966Z,29.77
2017-08-27T09:03:21.261Z,27.83
2017-08-27T09:05:49.607Z,27.70
2017-08-27T09:08:17.910Z,25.67
2017-08-27T09:10:46.200Z,27.00
2017-08-27T09:13:14.495Z,26.10
2017-08-27T09:15:42.819Z,27.87
2017-08-27T09:18:11.892Z,25.70
2017-08-27T09:20:40.196Z,24.60
2017-08-27T09:23:08.519Z,24.63
2017-08-27T09:25:36.938Z,25.00
2017-08-27T09:28:05.239Z,24.20
2017-08-27T09:30:33.532Z,22.67
2017-08-27T09:33:01.837Z,21.27
2017-08-27T09:35:30.131Z,21.67
2017-08-27T09:37:58.455Z,22.67
2017-08-27T09:40:26.753Z,21.67
2017-08-27T09:42:55.049Z,21.13
2017-08-27T09:45:23.339Z,19.67
2017-08-27T09:47:51.664Z,19.80
2017-08-27T09:50:20.007Z,19.00
2017-08-27T09:52:48.331Z,18.77
2017-08-27T09:55:16.635Z,16.70
2017-08-27T09:57:44.958Z,15.50
2017-08-27T10:00:13.270Z,16.37
2017-08-27T10:02:41.566Z,14.50
2017-08-27T10:05:09.856Z,17.73
2017-08-27T10:07:38.147Z,14.80
2017-08-27T10:10:06.581Z,16.27
2017-08-27T10:12:35.635Z,14.77
2017-08-27T10:15:03.940Z,13.33
2017-08-27T10:17:32.228Z,16.23
2017-08-27T10:20:01.747Z,15.80
2017-08-27T10:22:30.080Z,16.93
2017-08-27T10:24:58.371Z,15.60
2017-08-27T10:27:26.663Z,16.70
2017-08-27T10:29:54.959Z,15.53
2017-08-27T10:32:23.250Z,14.40
2017-08-27T10:34:51.598Z,14.50
2017-08-27T10:37:19.903Z,14.57
2017-08-27T10:39:48.995Z,14.00
2017-08-27T10:42:17.291Z,15.27
2017-08-27T10:44:46.354Z,14.20
2017-08-27T10:47:14.651Z,14.80
2017-08-27T10:49:42.943Z,13.13
2017-08-27T10:52:11.271Z,13.50
2017-08-27T10:54:39.577Z,12.80
2017-08-27T10:57:08.223Z,13.57
2017-08-27T10:59:36.519Z,11.83
2017-08-27T11:02:05.159Z,10.57
2017-08-27T11:04:33.730Z,12.13
2017-08-27T11:07:02.786Z,9.67
2017-08-27T11:09:31.202Z,10.40
2017-08-27T11:11:59.582Z,9.60
2017-08-27T11:14:27.893Z,9.60
2017-08-27T11:16:56.174Z,8.77
2017-08-27T11:19:24.463Z,9.67
2017-08-27T11:21:52.787Z,8.43
2017-08-27T11:24:21.075Z,9.10
2017-08-27T11:26:49.735Z,9.73
2017-08-27T11:29:18.283Z,9.10
2017-08-27T11:31:46.576Z,8.33
2017-08-27T11:34:14.887Z,8.83
2017-08-27T11:36:43.176Z,6.00
2017-08-27T11:39:11.591Z,6.50
2017-08-27T11:41:39.885Z,6.53
2017-08-27T11:44:08.490Z,5.70
2017-08-27T11:46:36.798Z,6.27
2017-08-27T11:49:05.096Z,5.37
2017-08-27T11:51:33.385Z,5.27
2017-08-27T11:54:01.698Z,5.50
2017-08-27T11:56:29.979Z,4.63
2017-08-27T11:58:58.267Z,5.83
2017-08-27T12:01:26.594Z,5.70
2017-08-27T12:03:54.879Z,5.17
2017-08-27T12:06:23.187Z,5.70
2017-08-27T12:08:51.504Z,4.97
2017-08-27T12:11:19.811Z,4.90
2017-08-27T12:13:48.092Z,5.43
2017-08-27T12:16:16.435Z,4.47
2017-08-27T12:18:44.706Z,3.90
2017-08-27T12:21:13.019Z,3.80
2017-08-27T12:23:41.304Z,3.53
2017-08-27T12:26:09.619Z,3.53
2017-08-27T12:28:37.926Z,3.70
2017-08-27T12:31:06.243Z,3.97
2017-08-27T12:33:34.523Z,3.87
2017-08-27T12:36:02.876Z,4.00
2017-08-27T12:38:31.936Z,3.53
2017-08-27T12:41:00.246Z,3.50
2017-08-27T12:43:28.559Z,3.60
2017-08-27T12:45:56.842Z,3.50
2017-08-27T12:48:25.930Z,3.87
2017-08-27T12:50:54.210Z,3.40
2017-08-27T12:53:22.494Z,3.97
2017-08-27T12:55:50.809Z,3.33
2017-08-27T12:58:19.099Z,3.80
2017-08-27T13:00:48.187Z,3.03
2017-08-27T13:03:16.723Z,3.73
2017-08-27T13:05:45.035Z,2.67
2017-08-27T13:08:13.323Z,3.03
2017-08-27T13:10:41.646Z,2.60
2017-08-27T13:13:09.954Z,2.60
2017-08-27T13:15:39.010Z,2.80
2017-08-27T13:18:07.332Z,2.43
2017-08-27T13:20:35.616Z,2.83
2017-08-27T13:23:03.936Z,2.43
2017-08-27T13:25:32.214Z,2.70
2017-08-27T13:28:00.535Z,2.20
2017-08-27T13:30:28.830Z,1.97
2017-08-27T13:32:57.930Z,2.10
2017-08-27T13:35:26.255Z,2.60
2017-08-27T13:37:54.552Z,2.10
2017-08-27T13:40:22.943Z,2.63
2017-08-27T13:42:51.234Z,2.70
2017-08-27T13:45:19.547Z,2.70
2017-08-27T13:47:47.867Z,2.23
2017-08-27T13:50:16.154Z,2.90
2017-08-27T13:52:44.439Z,2.50
2017-08-27T13:55:12.722Z,2.80
2017-08-27T13:57:41.054Z,2.67
2017-08-27T14:00:09.378Z,2.50
2017-08-27T14:02:37.668Z,2.90
2017-08-27T14:05:06.012Z,2.83
2017-08-27T14:07:35.066Z,2.53
2017-08-27T14:10:03.390Z,2.83
2017-08-27T14:12:31.686Z,2.77
2017-08-27T14:14:59.971Z,2.30
2017-08-27T14:17:28.259Z,2.77
2017-08-27T14:19:56.638Z,2.53
2017-08-27T14:22:25.611Z,2.73
2017-08-27T14:24:53.959Z,2.83
2017-08-27T14:27:23.040Z,2.07
2017-08-27T14:29:51.360Z,2.40
2017-08-27T14:32:19.642Z,2.00
2017-08-27T14:34:49.133Z,2.97
2017-08-27T14:37:17.518Z,2.50
2017-08-27T14:39:45.829Z,2.60
2017-08-27T14:42:14.103Z,2.57
2017-08-27T14:44:42.422Z,2.87
2017-08-27T14:47:10.704Z,2.00
2017-08-27T14:49:38.992Z,2.80
2017-08-27T14:52:07.310Z,2.83
2017-08-27T14:54:35.591Z,3.20
2017-08-27T14:57:03.898Z,3.00
2017-08-27T14:59:32.210Z,3.50
2017-08-27T15:02:00.504Z,2.50
2017-08-27T15:04:28.797Z,2.50
2017-08-27T15:06:57.088Z,2.50
2017-08-27T15:09:25.403Z,2.80
2017-08-27T15:11:54.455Z,2.83
2017-08-27T15:14:22.768Z,2.60
2017-08-27T15:16:51.054Z,2.90
2017-08-27T15:19:19.371Z,2.83
2017-08-27T15:21:47.650Z,3.10
2017-08-27T15:24:15.971Z,3.10
2017-08-27T15:26:44.342Z,2.63
2017-08-27T15:29:12.659Z,2.67
2017-08-27T15:31:40.950Z,2.97
2017-08-27T15:34:09.238Z,3.00
2017-08-27T15:36:37.839Z,2.87
2017-08-27T15:39:06.115Z,2.53
2017-08-27T15:41:34.442Z,2.80
2017-08-27T15:44:02.724Z,2.67
2017-08-27T15:46:31.043Z,2.70
2017-08-27T15:48:59.331Z,2.93
2017-08-27T15:51:27.662Z,2.30
2017-08-27T15:53:56.042Z,2.80
2017-08-27T15:56:24.322Z,2.67
2017-08-27T15:58:52.607Z,2.73
2017-08-27T16:01:20.890Z,2.40
2017-08-27T16:03:49.226Z,2.63
2017-08-27T16:06:17.546Z,3.00
2017-08-27T16:08:45.873Z,2.70
2017-08-27T16:11:14.205Z,2.90
2017-08-27T16:13:42.500Z,2.90
2017-08-27T16:16:11.580Z,3.53
2017-08-27T16:18:39.891Z,3.43
2017-08-27T16:21:08.179Z,3.00
2017-08-27T16:23:36.498Z,3.63
2017-08-27T16:26:04.780Z,2.73
2017-08-27T16:28:33.066Z,2.40
2017-08-27T16:31:02.153Z,2.60
2017-08-27T16:33:30.460Z,2.67
2017-08-27T16:35:58.824Z,3.13
2017-08-27T16:38:27.119Z,3.00
2017-08-27T16:40:55.432Z,2.77
2017-08-27T16:43:23.995Z,2.70
2017-08-27T16:45:52.315Z,3.73
2017-08-27T16:48:20.604Z,2.70
2017-08-27T16:50:49.675Z,3.20
2017-08-27T16:53:17.968Z,2.57
2017-08-27T16:55:46.298Z,2.47
2017-08-27T16:58:14.610Z,2.57
2017-08-27T17:00:42.990Z,3.03
2017-08-27T17:03:11.300Z,3.33
2017-08-27T17:05:39.591Z,2.80
2017-08-27T17:08:07.894Z,2.67
2017-08-27T17:10:36.233Z,2.90
2017-08-27T17:13:04.770Z,2.40
2017-08-27T17:15:33.098Z,3.17
2017-08-27T17:18:02.176Z,3.13
2017-08-27T17:20:30.456Z,2.60
2017-08-27T17:22:58.748Z,3.70
2017-08-27T17:25:27.067Z,2.80
2017-08-27T17:27:56.126Z,3.10
2017-08-27T17:30:24.444Z,2.50
2017-08-27T17:32:53.506Z,3.37
2017-08-27T17:35:21.842Z,2.70
2017-08-27T17:37:50.123Z,3.50
2017-08-27T17:40:18.434Z,3.90
2017-08-27T17:42:46.759Z,3.13
2017-08-27T17:45:15.059Z,4.03
2017-08-27T17:47:43.337Z,3.83
2017-08-27T17:50:11.650Z,3.80
2017-08-27T17:52:39.936Z,3.43
2017-08-27T17:55:08.254Z,3.33
2017-08-27T17:57:36.559Z,3.10
2017-08-27T18:00:04.846Z,3.83
2017-08-27T18:02:33.916Z,3.50
2017-08-27T18:05:02.220Z,4.57
2017-08-27T18:07:30.534Z,3.80
2017-08-27T18:09:58.831Z,4.43
2017-08-27T18:12:27.923Z,3.67
2017-08-27T18:14:57.018Z,4.33
2017-08-27T18:17:25.326Z,4.23
2017-08-27T18:19:53.655Z,4.00
2017-08-27T18:22:21.945Z,4.50
2017-08-27T18:24:50.254Z,4.63
2017-08-27T18:27:18.583Z,4.50
2017-08-27T18:29:46.946Z,4.60
2017-08-27T18:32:15.380Z,3.90
2017-08-27T18:34:44.418Z,3.80
2017-08-27T18:37:12.787Z,4.10
2017-08-27T18:39:41.083Z,4.53
2017-08-27T18:42:09.398Z,4.20
2017-08-27T18:44:37.688Z,4.77
2017-08-27T18:47:06.011Z,4.20
2017-08-27T18:49:34.318Z,4.73
2017-08-27T18:52:03.046Z,4.77
2017-08-27T18:54:31.367Z,4.63
2017-08-27T18:57:00.507Z,4.90
2017-08-27T19:06:59.241Z,5.33
2017-08-27T19:09:27.598Z,4.83
2017-08-27T19:11:55.915Z,5.47
2017-08-27T19:14:24.226Z,5.57
2017-08-27T19:16:52.939Z,6.23
2017-08-27T19:19:21.229Z,5.67
2017-08-27T19:21:49.515Z,5.90
2017-08-27T19:24:17.855Z,5.70
2017-08-27T19:26:46.137Z,5.60
2017-08-27T19:29:14.579Z,5.93
2017-08-27T19:31:42.934Z,5.70
2017-08-27T19:34:11.459Z,5.30
2017-08-27T19:39:07.803Z,5.80
2017-08-27T19:41:36.085Z,5.23
2017-08-27T19:44:04.398Z,5.80
2017-08-27T19:46:32.708Z,5.70
2017-08-27T19:49:01.051Z,6.30
2017-08-27T19:51:29.339Z,6.10
2017-08-27T19:53:57.724Z,6.93
2017-08-27T19:56:26.044Z,6.83
2017-08-27T19:58:55.092Z,6.70
2017-08-27T20:01:23.375Z,6.60
2017-08-27T20:03:51.658Z,6.17
2017-08-27T20:06:19.977Z,6.90
2017-08-27T20:08:48.266Z,6.43
2017-08-27T20:11:16.575Z,6.33
2017-08-27T20:13:44.924Z,6.53
2017-08-27T20:16:13.230Z,7.47
2017-08-27T20:18:41.685Z,6.53
2017-08-27T20:21:10.018Z,8.00
2017-08-27T20:23:38.303Z,6.37
2017-08-27T20:26:06.622Z,7.53
2017-08-27T20:28:34.914Z,7.13
2017-08-27T20:31:03.372Z,7.40
2017-08-27T20:33:31.677Z,7.40
2017-08-27T20:36:00.091Z,7.40
2017-08-27T20:38:28.403Z,7.73
2017-08-27T20:40:56.683Z,7.93
2017-08-27T20:43:25.038Z,8.37
2017-08-27T20:45:53.348Z,7.80
2017-08-27T20:48:21.639Z,7.00
2017-08-27T20:50:49.926Z,8.30
2017-08-27T20:53:18.215Z,8.50
2017-08-27T20:55:46.525Z,6.93
2017-08-27T20:58:14.802Z,5.80
2017-08-27T21:00:43.101Z,6.97
2017-08-27T21:03:11.414Z,8.00
2017-08-27T21:05:39.847Z,6.17
2017-08-27T21:08:08.159Z,7.50
2017-08-27T21:10:36.561Z,7.23
2017-08-27T21:13:04.888Z,5.77
2017-08-27T21:15:33.180Z,6.60
2017-08-27T21:18:01.470Z,6.87
2017-08-27T21:20:29.786Z,7.30
2017-08-27T21:22:58.070Z,6.10
2017-08-27T21:25:26.424Z,6.70
2017-08-27T21:27:54.715Z,7.47
2017-08-27T21:30:23.048Z,6.70
2017-08-27T21:32:51.370Z,7.20
2017-08-27T21:35:19.643Z,7.80
2017-08-27T21:37:47.963Z,7.40
2017-08-27T21:40:16.238Z,6.97
2017-08-27T21:42:44.545Z,7.77
2017-08-27T21:45:12.842Z,8.83
2017-08-27T21:47:41.167Z,8.80
2017-08-27T21:50:09.462Z,8.53
2017-08-27T21:52:37.774Z,8.37
2017-08-27T21:55:06.240Z,8.30
2017-08-27T21:57:34.523Z,8.70
2017-08-27T22:00:02.841Z,8.73
2017-08-27T22:02:31.184Z,9.57
2017-08-27T22:04:59.567Z,9.67
2017-08-27T22:07:27.888Z,9.50
2017-08-27T22:09:56.943Z,9.67
2017-08-27T22:12:25.267Z,10.60
2017-08-27T22:14:53.559Z,11.00
2017-08-27T22:17:21.883Z,11.40
2017-08-27T22:19:50.179Z,11.00
2017-08-27T22:22:18.503Z,10.90
2017-08-27T22:24:47.605Z,10.80
2017-08-27T22:27:15.932Z,10.77
2017-08-27T22:29:44.234Z,11.73
2017-08-27T22:32:12.546Z,11.37
2017-08-27T22:34:40.834Z,12.37
2017-08-27T22:37:09.130Z,11.40
2017-08-27T22:39:37.454Z,11.50
2017-08-27T22:42:06.536Z,12.47
2017-08-27T22:44:34.855Z,12.10
2017-08-27T22:47:03.178Z,13.40
2017-08-27T22:49:31.531Z,11.80
2017-08-27T22:51:59.846Z,12.13
2017-08-27T22:54:28.210Z,13.57
2017-08-27T22:56:57.314Z,13.67
2017-08-27T22:59:25.610Z,13.80
2017-08-27T23:01:53.898Z,12.37
2017-08-27T23:04:22.986Z,13.03
2017-08-27T23:06:51.402Z,11.80
2017-08-27T23:09:20.499Z,12.10
2017-08-27T23:11:48.811Z,11.37
2017-08-27T23:14:17.153Z,12.57
2017-08-27T23:16:45.434Z,14.40
2017-08-27T23:19:13.787Z,16.47
2017-08-27T23:21:42.080Z,13.30
2017-08-27T23:24:10.401Z,15.13
2017-08-27T23:26:38.709Z,12.63
2017-08-27T23:29:07.008Z,13.70
2017-08-27T23:31:35.335Z,13.47
2017-08-27T23:34:03.626Z,14.60
2017-08-27T23:36:31.917Z,14.60
2017-08-27T23:39:00.275Z,16.10
2017-08-27T23:41:29.403Z,13.73
2017-08-27T23:43:57.709Z,13.80
2017-08-27T23:46:25.995Z,15.33
2017-08-27T23:48:54.431Z,13.87
2017-08-27T23:51:22.723Z,14.30
2017-08-27T23:53:51.023Z,14.13
2017-08-27T23:56:19.337Z,13.97
2017-08-27T23:58:47.648Z,14.43
